Time;durP1;ratioP1;P1;durP2;ratioP2;P2;SDS_P1;SDS_P2;PMS_P1;PMS_P2;Temp;Humidity;BMP_temperature;BMP_pressure;BME280_temperature;BME280_humidity;BME280_pressure;Samples;Min_cycle;Max_cycle;Signal;HPM_P1;HPM_P2
2022/05/21 00:02:23;;;;;;;;;;;;;;;5.84;59.45;99550.66;5025084;28;19957;-68
2022/05/21 00:04:49;;;;;;;;;;;;;;;5.84;59.75;99547.97;5027449;28;19925;-69
2022/05/21 00:07:15;;;;;;;;;;;;;;;5.83;60.79;99546.31;5040827;28;20106;-70
2022/05/21 00:09:42;;;;;;;;;;;;;;;5.81;61.58;99543.03;5037075;28;19925;-69
2022/05/21 00:12:08;;;;;;;;;;;;;;;5.79;62.00;99545.19;5024914;28;19925;-69
2022/05/21 00:14:34;;;;;;;;;;;;;;;5.77;61.30;99531.84;5042767;28;19924;-68
2022/05/21 00:17:00;;;;;;;;;;;;;;;5.78;60.85;99540.81;5025873;28;19975;-69
2022/05/21 00:19:26;;;;;;;;;;;;;;;5.79;60.17;99546.00;5026720;28;19924;-69
2022/05/21 00:21:52;;;;;;;;;;;;;;;5.82;60.63;99545.50;5040812;28;19925;-69
2022/05/21 00:24:18;;;;;;;;;;;;;;;5.86;61.08;99536.88;5024596;28;19925;-69
2022/05/21 00:26:45;;;;;;;;;;;;;;;5.91;61.10;99543.19;5042353;28;19931;-69
2022/05/21 00:29:11;;;;;;;;;;;;;;;5.93;60.92;99541.03;5025432;28;19925;-69
2022/05/21 00:31:36;;;;;;;;;;;;;;;5.94;59.80;99534.53;5023075;28;19924;-69
2022/05/21 00:34:02;;;;;;;;;;;;;;;5.94;59.23;99537.25;5040658;28;19929;-69
2022/05/21 00:36:29;;;;;;;;;;;;;;;5.96;59.10;99537.00;5023542;28;19979;-69
2022/05/21 00:38:55;;;;;;;;;;;;;;;5.99;59.24;99541.09;5006870;28;20015;-69
2022/05/21 00:41:21;;;;;;;;;;;;;;;5.96;59.63;99531.59;5023358;28;19925;-69
2022/05/21 00:43:49;;;;;;;;;;;;;;;5.97;59.37;99531.31;5024535;28;19925;-69
2022/05/21 00:46:16;;;;;;;;;;;;;;;5.95;58.92;99532.66;5026120;28;19931;-69
2022/05/21 00:48:43;;;;;;;;;;;;;;;5.94;59.68;99531.03;5024521;28;19944;-69
2022/05/21 00:51:12;;;;;;;;;;;;;;;5.94;59.68;99528.31;5024530;28;19925;-69
2022/05/21 00:53:38;;;;;;;;;;;;;;;5.96;60.38;99523.44;5023582;28;19968;-69
2022/05/21 00:56:04;;;;;;;;;;;;;;;5.95;60.61;99524.53;5024452;28;19932;-69
2022/05/21 01:01:17;;;;;;;;;;;;;;;5.90;61.10;99522.56;5026248;28;19924;-69
2022/05/21 01:03:44;;;;;;;;;;;;;;;5.88;61.95;99519.28;5022348;28;19925;-69
2022/05/21 01:06:11;;;;;;;;;;;;;;;5.87;61.79;99514.91;5023329;28;19947;-69
2022/05/21 01:08:38;;;;;;;;;;;;;;;5.87;61.36;99516.78;5023419;28;20398;-69
2022/05/21 01:11:07;;;;;;;;;;;;;;;5.80;61.89;99501.53;5023987;28;19925;-69
2022/05/21 01:13:34;;;;;;;;;;;;;;;5.90;61.65;99511.69;5021559;28;20024;-69
2022/05/21 01:16:00;;;;;;;;;;;;;;;5.92;62.07;99511.44;5023503;28;19925;-69
2022/05/21 01:18:27;;;;;;;;;;;;;;;5.93;62.24;99521.22;5023940;28;19995;-69
2022/05/21 01:20:54;;;;;;;;;;;;;;;5.96;62.26;99521.53;5024481;28;20016;-70
2022/05/21 01:23:22;;;;;;;;;;;;;;;5.96;62.26;99510.69;5037734;28;20310;-69
2022/05/21 01:25:48;;;;;;;;;;;;;;;5.99;62.18;99512.09;5021963;28;19955;-69
2022/05/21 01:28:15;;;;;;;;;;;;;;;6.00;61.79;99508.28;5023655;28;20411;-69
2022/05/21 01:30:42;;;;;;;;;;;;;;;6.01;62.69;99515.41;5025373;28;20179;-69
2022/05/21 01:33:11;;;;;;;;;;;;;;;6.02;61.88;99517.03;5021787;28;19928;-69
2022/05/21 01:35:37;;;;;;;;;;;;;;;6.05;61.73;99521.94;5022191;28;19948;-70
2022/05/21 01:38:04;;;;;;;;;;;;;;;6.06;61.94;99528.22;5024133;28;19929;-72
2022/05/21 01:40:31;;;;;;;;;;;;;;;5.97;61.67;99511.50;5039974;28;19956;-70
2022/05/21 01:45:42;;;;;;;;;;;;;;;6.09;61.70;99512.25;5022242;28;19929;-70
2022/05/21 01:48:08;;;;;;;;;;;;;;;6.10;61.81;99511.19;5023501;28;19925;-71
2022/05/21 01:50:34;;;;;;;;;;;;;;;6.15;61.39;99515.03;5027621;28;20018;-71
2022/05/21 01:53:00;;;;;;;;;;;;;;;6.13;60.52;99515.25;5025179;28;19976;-71
2022/05/21 01:55:26;;;;;;;;;;;;;;;6.13;60.56;99515.25;5023186;28;19932;-71
2022/05/21 01:57:53;;;;;;;;;;;;;;;6.15;59.96;99515.81;5022939;28;19932;-72
2022/05/21 02:00:19;;;;;;;;;;;;;;;6.15;60.00;99501.44;5021784;28;19928;-70
2022/05/21 02:02:45;;;;;;;;;;;;;;;6.15;60.05;99515.03;5024901;28;19925;-71
2022/05/21 02:05:11;;;;;;;;;;;;;;;6.14;60.37;99513.38;5023778;28;20388;-71
2022/05/21 02:07:37;;;;;;;;;;;;;;;6.09;59.16;99506.81;5021994;28;19970;-71
2022/05/21 02:10:04;;;;;;;;;;;;;;;6.07;58.72;99503.50;5020204;28;19929;-72
2022/05/21 02:12:30;;;;;;;;;;;;;;;6.04;59.17;99514.06;5024207;28;19936;-69
2022/05/21 02:14:57;;;;;;;;;;;;;;;5.97;59.66;99519.66;5025612;28;20374;-69
2022/05/21 02:17:24;;;;;;;;;;;;;;;5.89;59.97;99510.06;5023696;28;19929;-69
2022/05/21 02:19:50;;;;;;;;;;;;;;;5.82;59.82;99506.69;5039654;28;20021;-68
2022/05/21 02:22:16;;;;;;;;;;;;;;;5.78;59.58;99502.84;5023803;28;19936;-69
2022/05/21 02:24:42;;;;;;;;;;;;;;;5.75;59.44;99506.88;5040044;28;19925;-71
2022/05/21 02:27:08;;;;;;;;;;;;;;;5.77;59.46;99507.44;5018964;28;20021;-72
2022/05/21 02:29:34;;;;;;;;;;;;;;;5.80;60.11;99506.13;5023028;28;20023;-73
2022/05/21 02:32:01;;;;;;;;;;;;;;;5.82;60.30;99509.41;5022850;28;20414;-72
2022/05/21 02:34:27;;;;;;;;;;;;;;;5.87;59.67;99509.50;5022232;28;20376;-72
2022/05/21 02:39:37;;;;;;;;;;;;;;;5.86;59.16;99490.72;5023436;28;19932;-71
2022/05/21 02:42:03;;;;;;;;;;;;;;;5.93;58.31;99504.94;5023606;28;19929;-71
2022/05/21 02:44:30;;;;;;;;;;;;;;;5.95;58.12;99503.63;5025153;28;19925;-71
2022/05/21 02:46:56;;;;;;;;;;;;;;;6.03;57.98;99498.88;5022590;28;20384;-71
2022/05/21 02:49:23;;;;;;;;;;;;;;;6.12;57.77;99491.91;5037050;28;19932;-71
2022/05/21 02:51:49;;;;;;;;;;;;;;;6.21;57.07;99490.41;5020835;28;19928;-71
2022/05/21 02:54:15;;;;;;;;;;;;;;;6.30;56.48;99498.09;5006485;28;19925;-71
2022/05/21 02:56:45;;;;;;;;;;;;;;;6.39;56.55;99502.00;5026069;28;20438;-71
2022/05/21 02:59:11;;;;;;;;;;;;;;;6.37;56.58;99496.81;5022241;28;20036;-72
2022/05/21 03:01:37;;;;;;;;;;;;;;;6.30;56.57;99488.06;5038407;28;20329;-72
2022/05/21 03:04:03;;;;;;;;;;;;;;;6.35;56.89;99493.53;5023075;28;19931;-71
2022/05/21 03:06:30;;;;;;;;;;;;;;;6.29;57.29;99494.56;5020803;28;19988;-71
2022/05/21 03:11:40;;;;;;;;;;;;;;;6.26;57.53;99495.06;5019414;28;19929;-71
2022/05/21 03:14:06;;;;;;;;;;;;;;;6.29;57.12;99480.16;5022218;28;19950;-72
2022/05/21 03:16:32;;;;;;;;;;;;;;;6.34;56.68;99489.19;5020699;28;20031;-71
2022/05/21 03:18:58;;;;;;;;;;;;;;;6.45;56.40;99484.69;5036827;28;20024;-71
2022/05/21 03:21:24;;;;;;;;;;;;;;;6.52;56.40;99492.63;5021204;28;20415;-72
2022/05/21 03:23:51;;;;;;;;;;;;;;;6.54;56.13;99485.03;5024501;28;19925;-71
2022/05/21 03:26:17;;;;;;;;;;;;;;;6.51;56.09;99485.56;5025780;28;19925;-71
2022/05/21 03:28:43;;;;;;;;;;;;;;;6.50;56.21;99482.03;5022108;28;19956;-72
2022/05/21 03:31:08;;;;;;;;;;;;;;;6.55;56.43;99481.25;5020647;28;19936;-71
2022/05/21 03:33:34;;;;;;;;;;;;;;;6.61;55.95;99482.97;5037303;28;20027;-72
2022/05/21 03:36:00;;;;;;;;;;;;;;;6.74;55.85;99476.28;5023936;28;20392;-72
2022/05/21 03:38:25;;;;;;;;;;;;;;;6.83;55.92;99481.25;5024066;28;19924;-71
2022/05/21 03:40:53;;;;;;;;;;;;;;;6.91;55.29;99472.63;5022206;28;20422;-72
2022/05/21 03:43:19;;;;;;;;;;;;;;;6.99;55.02;99476.75;5020041;28;20051;-71
2022/05/21 03:45:45;;;;;;;;;;;;;;;7.11;55.36;99477.41;5022892;28;20020;-71
2022/05/21 03:48:11;;;;;;;;;;;;;;;7.23;54.72;99482.66;5022590;28;20506;-71
2022/05/21 03:50:37;;;;;;;;;;;;;;;7.33;54.70;99479.19;5035708;28;19929;-71
2022/05/21 03:53:04;;;;;;;;;;;;;;;7.43;54.20;99473.84;5019964;28;19929;-72
2022/05/21 03:55:30;;;;;;;;;;;;;;;7.47;53.81;99472.22;5021080;28;20468;-72
2022/05/21 03:57:57;;;;;;;;;;;;;;;7.50;52.95;99477.16;5024297;28;19925;-72
2022/05/21 04:00:23;;;;;;;;;;;;;;;7.56;52.75;99469.84;5021095;28;19952;-72
2022/05/21 04:02:49;;;;;;;;;;;;;;;7.62;52.25;99474.25;5022265;28;20315;-72
2022/05/21 04:05:15;;;;;;;;;;;;;;;7.69;51.45;99478.63;5003920;28;19964;-72
2022/05/21 04:07:41;;;;;;;;;;;;;;;7.76;51.54;99473.78;5006096;28;20417;-71
2022/05/21 04:10:09;;;;;;;;;;;;;;;7.85;51.52;99472.16;5002701;28;20339;-71
2022/05/21 04:12:35;;;;;;;;;;;;;;;7.99;52.15;99468.97;5003695;28;19936;-71
2022/05/21 04:15:02;;;;;;;;;;;;;;;8.06;52.07;99464.13;5006483;28;19929;-71
2022/05/21 04:17:29;;;;;;;;;;;;;;;8.08;51.53;99465.47;5022789;28;20338;-71
2022/05/21 04:19:55;;;;;;;;;;;;;;;8.11;51.15;99464.13;5003525;28;20023;-70
2022/05/21 04:22:20;;;;;;;;;;;;;;;8.15;51.49;99464.41;4994808;28;20517;-69
2022/05/21 04:24:46;;;;;;;;;;;;;;;8.20;51.23;99457.09;4999197;28;20407;-69
2022/05/21 04:27:12;;;;;;;;;;;;;;;8.27;50.36;99464.19;4996859;28;19925;-71
2022/05/21 04:29:38;;;;;;;;;;;;;;;8.30;49.80;99467.19;4983417;28;20309;-71
2022/05/21 04:32:06;;;;;;;;;;;;;;;8.31;48.99;99468.81;5005527;28;19937;-72
2022/05/21 04:34:31;;;;;;;;;;;;;;;8.35;48.34;99456.31;5007972;28;19925;-72
2022/05/21 04:36:57;;;;;;;;;;;;;;;8.44;47.77;99458.50;5008244;28;20313;-72
2022/05/21 04:39:23;;;;;;;;;;;;;;;8.53;47.37;99456.91;5023231;28;19926;-71
2022/05/21 04:41:49;;;;;;;;;;;;;;;8.59;45.51;99452.28;4984824;28;19929;-72
2022/05/21 04:44:15;;;;;;;;;;;;;;;8.63;45.49;99453.38;5004807;28;20363;-71
2022/05/21 04:46:42;;;;;;;;;;;;;;;8.64;45.29;99455.84;4665567;28;10000534;-69
2022/05/21 04:49:09;;;;;;;;;;;;;;;8.68;45.21;99445.25;5013426;28;20383;-72
2022/05/21 04:51:37;;;;;;;;;;;;;;;8.69;44.55;99451.50;5007699;28;20030;-71
2022/05/21 04:54:03;;;;;;;;;;;;;;;8.65;44.47;99445.75;5036707;28;20334;-69
2022/05/21 04:56:29;;;;;;;;;;;;;;;8.71;45.08;99443.84;5013483;28;19925;-70
2022/05/21 04:58:56;;;;;;;;;;;;;;;8.78;45.40;99447.16;4995366;28;20018;-70
2022/05/21 05:01:22;;;;;;;;;;;;;;;8.83;44.07;99441.69;5009873;28;20419;-70
2022/05/21 05:03:47;;;;;;;;;;;;;;;8.90;43.93;99441.41;5020331;28;19926;-69
2022/05/21 05:06:15;;;;;;;;;;;;;;;8.94;44.32;99440.63;5009170;28;19929;-69
2022/05/21 05:08:41;;;;;;;;;;;;;;;8.98;44.77;99435.44;5006568;28;19925;-69
2022/05/21 05:11:06;;;;;;;;;;;;;;;9.02;44.51;99443.88;5008045;28;19941;-70
2022/05/21 05:13:32;;;;;;;;;;;;;;;9.02;44.32;99436.53;5005464;28;20443;-69
2022/05/21 05:15:58;;;;;;;;;;;;;;;9.04;43.06;99437.06;5007897;28;19931;-69
2022/05/21 05:18:27;;;;;;;;;;;;;;;9.06;43.29;99432.16;5004683;28;19925;-69
2022/05/21 05:20:53;;;;;;;;;;;;;;;9.13;43.38;99425.59;5005746;28;19925;-69
2022/05/21 05:23:20;;;;;;;;;;;;;;;9.21;42.98;99419.59;5013767;28;19925;-69
2022/05/21 05:25:46;;;;;;;;;;;;;;;9.24;42.23;99419.03;5010568;28;19983;-69
2022/05/21 05:28:13;;;;;;;;;;;;;;;9.28;42.70;99420.09;5021252;28;19928;-70
2022/05/21 05:30:38;;;;;;;;;;;;;;;9.34;42.80;99415.47;5018653;28;19925;-69
2022/05/21 05:33:04;;;;;;;;;;;;;;;9.39;42.14;99414.63;5024425;28;20316;-69
2022/05/21 05:35:31;;;;;;;;;;;;;;;9.44;42.67;99411.88;5014856;28;19929;-69
2022/05/21 05:37:56;;;;;;;;;;;;;;;9.53;42.69;99401.25;5017428;28;19925;-69
2022/05/21 05:40:24;;;;;;;;;;;;;;;9.61;42.50;99406.13;5010302;28;19926;-70
2022/05/21 05:42:50;;;;;;;;;;;;;;;9.73;41.77;99401.19;5005781;28;20587;-69
2022/05/21 05:45:16;;;;;;;;;;;;;;;9.78;42.00;99395.69;5005839;28;19925;-69
2022/05/21 05:47:42;;;;;;;;;;;;;;;9.92;42.06;99393.19;5006581;28;19925;-70
2022/05/21 05:50:08;;;;;;;;;;;;;;;10.06;42.25;99382.44;5004116;28;20451;-70
2022/05/21 05:52:34;;;;;;;;;;;;;;;10.20;41.77;99388.09;5003967;28;20340;-69
2022/05/21 05:55:00;;;;;;;;;;;;;;;10.32;41.48;99389.66;5007064;28;20422;-70
2022/05/21 05:57:27;;;;;;;;;;;;;;;10.51;41.12;99381.66;5005160;28;20036;-70
2022/05/21 05:59:55;;;;;;;;;;;;;;;10.63;40.40;99384.84;5007636;28;20352;-69
2022/05/21 06:05:08;;;;;;;;;;;;;;;10.75;39.83;99369.97;5003141;28;19931;-69
2022/05/21 06:07:40;;;;;;;;;;;;;;;10.94;39.58;99367.34;5006257;28;19925;-70
2022/05/21 06:10:06;;;;;;;;;;;;;;;11.15;39.33;99369.88;5020263;28;19935;-69
2022/05/21 06:12:33;;;;;;;;;;;;;;;11.25;38.83;99366.25;5017011;28;20395;-69
2022/05/21 06:14:59;;;;;;;;;;;;;;;11.37;38.48;99357.63;5023232;28;19925;-70
2022/05/21 06:17:26;;;;;;;;;;;;;;;11.56;38.61;99360.44;5004439;28;19956;-70
2022/05/21 06:19:52;;;;;;;;;;;;;;;11.77;38.22;99352.75;5004930;28;20393;-70
2022/05/21 06:22:18;;;;;;;;;;;;;;;11.97;37.78;99343.44;5005294;28;20393;-70
2022/05/21 06:24:43;;;;;;;;;;;;;;;12.23;37.63;99343.13;5032274;28;19990;-69
2022/05/21 06:27:09;;;;;;;;;;;;;;;12.41;36.86;99343.41;5022295;28;20976;-71
2022/05/21 06:29:37;;;;;;;;;;;;;;;12.56;36.59;99336.84;5011793;28;19979;-70
2022/05/21 06:32:03;;;;;;;;;;;;;;;12.60;36.40;99335.16;5025141;28;19925;-69
2022/05/21 06:34:29;;;;;;;;;;;;;;;12.73;36.02;99333.56;5022479;28;19929;-69
2022/05/21 06:36:55;;;;;;;;;;;;;;;12.84;35.84;99334.19;5025767;28;20359;-71
2022/05/21 06:39:20;;;;;;;;;;;;;;;12.85;34.35;99339.38;5039511;28;20020;-72
2022/05/21 06:41:48;;;;;;;;;;;;;;;12.74;32.59;99325.03;5020675;28;19932;-72
2022/05/21 06:44:15;;;;;;;;;;;;;;;12.75;33.10;99326.66;5038835;28;19931;-72
2022/05/21 06:46:42;;;;;;;;;;;;;;;12.83;33.75;99318.84;5023597;28;20320;-72
2022/05/21 06:49:08;;;;;;;;;;;;;;;12.86;33.47;99304.53;5023154;28;19925;-73
2022/05/21 06:51:33;;;;;;;;;;;;;;;13.17;33.38;99318.50;5024184;28;20308;-72
2022/05/21 06:53:59;;;;;;;;;;;;;;;13.24;33.19;99317.25;5022040;28;19925;-72
2022/05/21 06:56:25;;;;;;;;;;;;;;;13.37;33.22;99321.94;5015466;28;20296;-72
2022/05/21 06:58:51;;;;;;;;;;;;;;;13.32;32.04;99313.81;5004195;28;20392;-72
2022/05/21 07:01:18;;;;;;;;;;;;;;;13.16;32.35;99307.81;5017449;28;19925;-72
2022/05/21 07:03:45;;;;;;;;;;;;;;;13.17;32.28;99295.72;5001644;28;19925;-72
2022/05/21 07:08:55;;;;;;;;;;;;;;;13.52;31.22;99309.06;5002685;28;19925;-70
2022/05/21 07:11:21;;;;;;;;;;;;;;;13.28;31.03;99302.63;5003399;28;20312;-70
2022/05/21 07:13:47;;;;;;;;;;;;;;;13.21;31.33;99301.41;5002386;28;20348;-72
2022/05/21 07:16:13;;;;;;;;;;;;;;;13.41;30.62;99298.25;5003568;28;19925;-72
2022/05/21 07:18:38;;;;;;;;;;;;;;;13.79;30.37;99288.97;5004283;28;19925;-72
2022/05/21 07:21:10;;;;;;;;;;;;;;;14.00;30.41;99277.53;5038377;28;19925;-72
2022/05/21 07:23:36;;;;;;;;;;;;;;;13.97;30.71;99270.72;5030467;28;19929;-72
2022/05/21 07:26:02;;;;;;;;;;;;;;;14.01;30.84;99268.97;5002694;28;19987;-72
2022/05/21 07:28:28;;;;;;;;;;;;;;;14.21;30.83;99266.03;5007533;28;20822;-72
2022/05/21 07:30:53;;;;;;;;;;;;;;;14.55;30.04;99273.72;5003910;28;20415;-72
2022/05/21 07:33:20;;;;;;;;;;;;;;;14.88;29.97;99267.94;5004858;28;19925;-70
2022/05/21 07:35:46;;;;;;;;;;;;;;;15.06;29.78;99268.00;5007047;28;19925;-70
2022/05/21 07:38:15;;;;;;;;;;;;;;;15.22;29.66;99267.56;5005572;28;19948;-70
2022/05/21 07:40:41;;;;;;;;;;;;;;;15.29;29.24;99254.97;5005360;28;19925;-70
2022/05/21 07:43:11;;;;;;;;;;;;;;;15.17;28.29;99257.50;5004933;28;19995;-70
2022/05/21 07:45:39;;;;;;;;;;;;;;;14.83;28.38;99259.00;5004489;28;20383;-70
2022/05/21 07:48:05;;;;;;;;;;;;;;;14.60;28.71;99256.28;5006579;28;20385;-70
2022/05/21 07:50:31;;;;;;;;;;;;;;;14.60;28.31;99259.03;5004244;28;19925;-70
2022/05/21 07:52:57;;;;;;;;;;;;;;;14.54;28.17;99258.34;4998956;28;19932;-70
2022/05/21 07:55:24;;;;;;;;;;;;;;;14.70;28.04;99266.19;4653672;28;9999750;-70
2022/05/21 07:57:50;;;;;;;;;;;;;;;14.72;28.45;99247.47;4998126;28;19932;-70
2022/05/21 08:00:18;;;;;;;;;;;;;;;15.20;28.21;99251.34;4999860;28;20036;-70
2022/05/21 08:02:44;;;;;;;;;;;;;;;15.83;27.61;99245.63;4997652;28;19926;-70
2022/05/21 08:05:10;;;;;;;;;;;;;;;16.17;26.36;99248.75;4996012;28;19936;-70
2022/05/21 08:07:36;;;;;;;;;;;;;;;16.03;26.18;99240.66;4997060;28;20373;-70
2022/05/21 08:10:02;;;;;;;;;;;;;;;16.02;26.50;99236.28;4998148;28;19929;-70
2022/05/21 08:12:30;;;;;;;;;;;;;;;16.42;25.87;99235.25;4999126;28;19925;-71
2022/05/21 08:14:56;;;;;;;;;;;;;;;16.55;25.65;99227.91;4997702;28;20573;-70
2022/05/21 08:17:22;;;;;;;;;;;;;;;16.71;26.12;99226.22;4984189;28;19925;-70
2022/05/21 08:19:48;;;;;;;;;;;;;;;17.04;25.65;99219.31;5001493;28;19932;-70
2022/05/21 08:27:45;;;;;;;;;;;;;;;18.09;23.72;99209.47;4985726;28;19995;-70
2022/05/21 08:30:11;;;;;;;;;;;;;;;18.59;23.82;99211.59;5004115;28;19932;-71
2022/05/21 08:32:37;;;;;;;;;;;;;;;18.91;23.49;99204.34;5004092;28;20153;-72
2022/05/21 08:35:03;;;;;;;;;;;;;;;18.78;22.87;99209.06;5001827;28;20121;-70
2022/05/21 08:37:29;;;;;;;;;;;;;;;18.77;22.65;99198.34;5001305;28;19925;-70
2022/05/21 08:39:55;;;;;;;;;;;;;;;18.91;22.68;99195.25;5001119;28;19925;-72
2022/05/21 08:42:28;;;;;;;;;;;;;;;18.91;22.45;99193.25;5001408;28;19932;-72
2022/05/21 08:45:01;;;;;;;;;;;;;;;18.96;22.70;99200.53;5024096;28;20025;-72
2022/05/21 08:47:32;;;;;;;;;;;;;;;19.15;22.16;99199.16;5020613;28;19948;-72
2022/05/21 08:50:02;;;;;;;;;;;;;;;19.39;22.16;99195.56;5024919;28;19933;-73
2022/05/21 08:52:32;;;;;;;;;;;;;;;19.73;21.23;99195.38;5026242;28;19925;-72
2022/05/21 08:54:59;;;;;;;;;;;;;;;19.68;21.48;99194.47;5022368;28;19925;-72
2022/05/21 08:57:27;;;;;;;;;;;;;;;20.31;21.13;99178.38;5027246;28;19936;-72
2022/05/21 08:59:55;;;;;;;;;;;;;;;20.65;20.96;99172.50;5009146;28;20326;-70
2022/05/21 09:02:27;;;;;;;;;;;;;;;20.95;20.78;99170.09;5042708;28;19961;-70
2022/05/21 09:04:53;;;;;;;;;;;;;;;21.47;19.76;99166.47;5016973;28;20030;-72
2022/05/21 09:07:21;;;;;;;;;;;;;;;21.81;19.63;99147.31;5028256;28;19932;-72
2022/05/21 09:10:06;;;;;;;;;;;;;;;22.20;18.18;99157.59;5024945;28;20002;-72
2022/05/21 09:12:37;;;;;;;;;;;;;;;21.62;18.49;99156.44;5025614;28;19925;-72
2022/05/21 09:15:04;;;;;;;;;;;;;;;21.43;18.95;99155.25;5025136;28;20016;-73
2022/05/21 09:17:41;;;;;;;;;;;;;;;21.41;18.40;99148.47;5025300;28;20091;-73
2022/05/21 09:20:14;;;;;;;;;;;;;;;20.99;19.01;99153.50;5013619;28;20424;-72
2022/05/21 09:22:53;;;;;;;;;;;;;;;20.79;19.39;99153.41;5019773;28;20472;-72
2022/05/21 09:25:20;;;;;;;;;;;;;;;20.96;19.31;99143.13;5024728;28;19925;-70
2022/05/21 09:27:49;;;;;;;;;;;;;;;21.90;18.85;99135.97;5026395;28;20039;-70
2022/05/21 09:30:20;;;;;;;;;;;;;;;22.48;18.40;99140.66;5010810;28;19929;-70
2022/05/21 09:32:52;;;;;;;;;;;;;;;23.06;17.53;99141.53;5009042;28;19925;-70
2022/05/21 09:35:19;;;;;;;;;;;;;;;22.67;17.41;99120.25;5006764;28;19961;-70
2022/05/21 09:37:45;;;;;;;;;;;;;;;22.34;17.75;99123.66;5009305;28;20485;-70
2022/05/21 09:40:34;;;;;;;;;;;;;;;22.37;17.68;99131.28;5006734;28;20392;-70
2022/05/21 09:45:44;;;;;;;;;;;;;;;23.74;17.23;99120.53;5008652;28;20484;-70
2022/05/21 09:48:16;;;;;;;;;;;;;;;24.49;16.83;99114.91;5009102;28;20016;-70
2022/05/21 09:50:43;;;;;;;;;;;;;;;24.68;16.71;99117.84;5007946;28;19929;-71
2022/05/21 09:53:18;;;;;;;;;;;;;;;24.88;16.55;99108.03;5006800;28;19933;-70
2022/05/21 09:55:55;;;;;;;;;;;;;;;25.15;16.49;99104.22;5005822;28;20260;-70
2022/05/21 09:58:21;;;;;;;;;;;;;;;25.69;16.31;99106.47;5005655;28;19926;-70
2022/05/21 10:00:53;;;;;;;;;;;;;;;26.01;15.70;99097.34;5005027;28;20411;-70
2022/05/21 10:03:34;;;;;;;;;;;;;;;26.47;15.76;99084.63;5020865;28;20384;-70
2022/05/21 10:06:00;;;;;;;;;;;;;;;26.50;15.41;99085.81;4986862;28;19925;-70
2022/05/21 10:11:20;;;;;;;;;;;;;;;26.72;15.19;99081.00;5014150;28;20393;-70
2022/05/21 10:13:49;;;;;;;;;;;;;;;26.07;15.19;99078.97;5014049;28;20415;-71
2022/05/21 10:16:20;;;;;;;;;;;;;;;25.41;15.77;99074.38;5026323;28;19972;-71
2022/05/21 10:18:50;;;;;;;;;;;;;;;25.83;16.03;99077.72;5015163;28;20300;-71
2022/05/21 10:21:19;;;;;;;;;;;;;;;26.25;15.37;99062.19;5024555;28;20126;-70
2022/05/21 10:23:49;;;;;;;;;;;;;;;26.24;15.25;99057.03;5024357;28;19932;-70
2022/05/21 10:26:24;;;;;;;;;;;;;;;26.09;15.91;99056.16;5041106;28;20301;-70
2022/05/21 10:28:54;;;;;;;;;;;;;;;26.36;15.08;99053.78;5005580;28;19928;-73
2022/05/21 10:31:33;;;;;;;;;;;;;;;26.65;14.88;99058.59;5020683;28;20015;-73
2022/05/21 10:34:08;;;;;;;;;;;;;;;26.89;14.79;99046.53;4999790;28;20249;-73
2022/05/21 10:36:41;;;;;;;;;;;;;;;26.81;14.83;99046.94;5014167;28;19931;-71
2022/05/21 10:39:16;;;;;;;;;;;;;;;26.71;14.52;99043.75;5024865;28;19925;-72
2022/05/21 10:41:51;;;;;;;;;;;;;;;26.37;14.38;99046.97;5025112;28;19952;-73
2022/05/21 10:44:25;;;;;;;;;;;;;;;25.87;15.26;99045.72;5025217;28;19933;-72
2022/05/21 10:46:57;;;;;;;;;;;;;;;25.80;14.94;99053.31;5023349;28;19924;-72
2022/05/21 10:49:38;;;;;;;;;;;;;;;26.27;14.89;99036.59;5022541;28;19925;-72
2022/05/21 10:52:09;;;;;;;;;;;;;;;26.48;14.91;99036.56;5041224;28;19955;-73
2022/05/21 10:54:43;;;;;;;;;;;;;;;27.29;14.27;99040.00;5025121;28;19925;-73
2022/05/21 10:57:20;;;;;;;;;;;;;;;28.23;14.02;99033.84;4667300;28;10000162;-73
2022/05/21 10:59:49;;;;;;;;;;;;;;;28.90;13.41;99043.28;5009434;28;19929;-73
2022/05/21 11:02:24;;;;;;;;;;;;;;;29.29;12.75;99039.97;5021325;28;20028;-73
2022/05/21 11:04:58;;;;;;;;;;;;;;;28.62;12.96;99036.69;5001538;28;19991;-73
2022/05/21 11:07:36;;;;;;;;;;;;;;;28.57;13.23;99038.75;5000947;28;20024;-73
2022/05/21 11:10:06;;;;;;;;;;;;;;;28.67;13.00;99041.88;4999856;28;19929;-73
2022/05/21 11:12:37;;;;;;;;;;;;;;;28.55;12.36;99040.38;4999408;28;19929;-73
2022/05/21 11:15:05;;;;;;;;;;;;;;;28.08;12.64;99040.75;5015312;28;19936;-72
2022/05/21 11:17:35;;;;;;;;;;;;;;;27.68;12.76;99027.00;5036359;28;19925;-73
2022/05/21 11:20:03;;;;;;;;;;;;;;;27.81;12.42;99025.31;5021568;28;20317;-70
2022/05/21 11:22:33;;;;;;;;;;;;;;;27.70;12.86;99022.56;5025786;28;19924;-73
2022/05/21 11:25:07;;;;;;;;;;;;;;;27.82;12.94;99006.44;5018357;28;19924;-72
2022/05/21 11:27:36;;;;;;;;;;;;;;;28.13;12.31;99003.78;5021170;28;19968;-73
2022/05/21 11:30:05;;;;;;;;;;;;;;;28.15;12.76;99006.97;5017136;28;19929;-73
2022/05/21 11:38:13;;;;;;;;;;;;;;;27.61;12.57;98985.72;5027145;28;19925;-72
2022/05/21 11:41:24;;;;;;;;;;;;;;;28.26;12.25;98982.44;5022408;28;19932;-72
2022/05/21 11:46:46;;;;;;;;;;;;;;;28.71;12.34;98980.78;5004827;28;20384;-73
2022/05/21 11:49:30;;;;;;;;;;;;;;;28.94;12.22;98982.13;5005086;28;19931;-72
2022/05/21 11:52:01;;;;;;;;;;;;;;;29.63;12.16;98981.25;5005938;28;20044;-73
2022/05/21 11:54:47;;;;;;;;;;;;;;;29.80;11.61;98977.34;5006773;28;19925;-72
2022/05/21 11:57:28;;;;;;;;;;;;;;;30.03;11.51;98967.38;5003828;28;19933;-72
2022/05/21 11:59:54;;;;;;;;;;;;;;;29.87;11.18;98973.63;5001607;28;19935;-69
2022/05/21 12:02:22;;;;;;;;;;;;;;;29.63;11.63;98967.97;5018530;28;20324;-69
2022/05/21 12:04:49;;;;;;;;;;;;;;;29.78;11.57;98960.09;5005088;28;19932;-70
2022/05/21 12:07:37;;;;;;;;;;;;;;;30.28;11.30;98952.03;5005038;28;20364;-70
2022/05/21 12:10:08;;;;;;;;;;;;;;;30.03;11.30;98955.28;5004332;28;20321;-70
2022/05/21 12:12:58;;;;;;;;;;;;;;;30.37;11.49;98957.91;5004857;28;19925;-69
2022/05/21 12:15:33;;;;;;;;;;;;;;;30.97;11.15;98954.34;5005496;28;20423;-69
2022/05/21 12:18:03;;;;;;;;;;;;;;;31.45;10.85;98940.00;5002480;28;19932;-69
2022/05/21 12:20:40;;;;;;;;;;;;;;;31.21;11.10;98945.00;5003931;28;19925;-69
2022/05/21 12:23:10;;;;;;;;;;;;;;;31.70;10.83;98941.44;5003045;28;19933;-70
2022/05/21 12:25:57;;;;;;;;;;;;;;;31.88;10.65;98935.38;5003866;28;19931;-69
2022/05/21 12:28:25;;;;;;;;;;;;;;;32.07;10.17;98936.50;5003300;28;19925;-70
2022/05/21 12:30:57;;;;;;;;;;;;;;;31.77;10.29;98932.78;4987892;28;20024;-70
2022/05/21 12:33:27;;;;;;;;;;;;;;;31.32;10.58;98919.34;4998934;28;19926;-69
2022/05/21 12:36:00;;;;;;;;;;;;;;;31.05;10.88;98921.13;5003028;28;19929;-69
2022/05/21 12:38:30;;;;;;;;;;;;;;;30.17;11.19;98926.06;5003704;28;20443;-69
2022/05/21 12:41:03;;;;;;;;;;;;;;;30.62;11.25;98931.28;5004311;28;19992;-72
2022/05/21 12:43:40;;;;;;;;;;;;;;;31.18;10.92;98926.09;5019655;28;19971;-72
2022/05/21 12:46:16;;;;;;;;;;;;;;;31.60;10.22;98926.34;5004443;28;19979;-72
2022/05/21 12:48:42;;;;;;;;;;;;;;;31.75;10.32;98920.34;5005261;28;19961;-73
2022/05/21 12:51:10;;;;;;;;;;;;;;;32.06;9.98;98917.16;5019423;28;19929;-72
2022/05/21 12:53:39;;;;;;;;;;;;;;;31.06;10.51;98921.91;5002618;28;19936;-73
2022/05/21 12:56:14;;;;;;;;;;;;;;;29.76;10.85;98917.47;5002356;28;19925;-73
2022/05/21 12:58:40;;;;;;;;;;;;;;;28.46;11.89;98908.75;5001767;28;19925;-69
2022/05/21 13:01:06;;;;;;;;;;;;;;;27.43;12.77;98908.03;5030235;28;20040;-69
2022/05/21 13:03:33;;;;;;;;;;;;;;;27.74;12.36;98907.44;4987774;28;19925;-69
2022/05/21 13:06:00;;;;;;;;;;;;;;;28.19;12.05;98908.66;5007026;28;19976;-70
2022/05/21 13:08:28;;;;;;;;;;;;;;;29.23;11.43;98909.41;5001808;28;19930;-70
2022/05/21 13:11:01;;;;;;;;;;;;;;;30.29;10.72;98894.44;5006452;28;20028;-70
2022/05/21 13:13:31;;;;;;;;;;;;;;;30.07;10.85;98891.25;5016620;28;19999;-69
2022/05/21 13:15:58;;;;;;;;;;;;;;;30.33;10.96;98886.72;5013868;28;19932;-70
2022/05/21 13:18:27;;;;;;;;;;;;;;;31.15;10.66;98893.09;5022392;28;19925;-70
2022/05/21 13:21:01;;;;;;;;;;;;;;;32.17;10.07;98892.22;5005065;28;20024;-70
2022/05/21 13:23:40;;;;;;;;;;;;;;;32.46;9.32;98893.50;5005134;28;19931;-69
2022/05/21 13:26:08;;;;;;;;;;;;;;;29.90;10.76;98888.28;5020461;28;20016;-69
2022/05/21 13:28:34;;;;;;;;;;;;;;;28.82;11.75;98894.31;5023137;28;19925;-69
2022/05/21 13:31:00;;;;;;;;;;;;;;;27.37;12.43;98889.25;5012177;28;19925;-70
2022/05/21 13:33:27;;;;;;;;;;;;;;;25.18;14.54;98880.50;5021776;28;19956;-70